createdAt,value
2022-10-13T00:00:51.003Z,75.07
2022-10-13T00:03:18.514Z,74.15
2022-10-13T00:05:48.135Z,73.65
2022-10-13T00:08:21.351Z,70.93
2022-10-13T00:10:50.910Z,71.32
2022-10-13T00:13:18.654Z,68.55
2022-10-13T00:15:46.893Z,74.32
2022-10-13T00:18:14.474Z,71.60
2022-10-13T00:20:47.752Z,67.95
2022-10-13T00:23:15.402Z,66.85
2022-10-13T00:25:48.238Z,84.75
2022-10-13T00:28:17.508Z,77.57
2022-10-13T00:30:44.871Z,79.32
2022-10-13T00:33:13.366Z,75.80
2022-10-13T00:35:44.775Z,72.88
2022-10-13T00:38:12.386Z,82.75
2022-10-13T00:40:54.077Z,80.15
2022-10-13T00:43:25.426Z,71.00
2022-10-13T00:45:53.789Z,79.35
2022-10-13T00:48:31.317Z,75.40
2022-10-13T00:50:58.941Z,74.13
2022-10-13T00:53:32.005Z,73.65
2022-10-13T00:55:59.763Z,74.45
2022-10-13T00:58:33.060Z,69.25
2022-10-13T01:01:01.078Z,67.93
2022-10-13T01:03:28.219Z,61.58
2022-10-13T01:05:58.268Z,56.05
2022-10-13T01:08:27.223Z,57.15
2022-10-13T01:11:09.329Z,55.33
2022-10-13T01:13:59.049Z,53.22
2022-10-13T01:16:46.557Z,55.85
2022-10-13T01:19:40.928Z,52.60
2022-10-13T01:22:33.891Z,51.78
2022-10-13T01:25:32.274Z,54.17
2022-10-13T01:28:05.045Z,47.60
2022-10-13T01:30:41.091Z,48.60
2022-10-13T01:33:20.610Z,46.92
2022-10-13T01:36:26.733Z,42.47
2022-10-13T01:38:56.368Z,46.70
2022-10-13T01:41:46.559Z,41.45
2022-10-13T01:44:31.279Z,46.05
2022-10-13T01:46:59.615Z,51.13
2022-10-13T01:49:31.347Z,47.95
2022-10-13T01:52:03.418Z,53.15
2022-10-13T01:54:30.536Z,49.67
2022-10-13T01:56:58.583Z,52.60
2022-10-13T01:59:30.025Z,54.33
2022-10-13T02:02:14.569Z,60.42
2022-10-13T02:04:57.308Z,56.47
2022-10-13T02:07:41.705Z,69.00
2022-10-13T02:10:08.611Z,62.33
2022-10-13T02:13:03.502Z,68.40
2022-10-13T02:15:35.952Z,63.55
2022-10-13T02:18:04.854Z,65.32
2022-10-13T02:20:32.310Z,65.55
2022-10-13T02:23:04.365Z,63.10
2022-10-13T02:25:32.124Z,65.25
2022-10-13T02:28:01.013Z,64.97
2022-10-13T02:30:30.514Z,66.22
2022-10-13T02:32:57.793Z,67.63
2022-10-13T02:35:24.625Z,68.50
2022-10-13T02:37:51.601Z,63.65
2022-10-13T02:40:18.595Z,64.65
2022-10-13T02:42:45.491Z,58.42
2022-10-13T02:45:12.441Z,59.95
2022-10-13T02:47:40.075Z,66.47
2022-10-13T02:50:07.635Z,58.08
2022-10-13T02:52:37.929Z,57.03
2022-10-13T02:55:05.512Z,54.67
2022-10-13T02:57:32.783Z,59.33
2022-10-13T03:00:00.019Z,61.45
2022-10-13T03:02:28.154Z,63.95
2022-10-13T03:04:55.220Z,60.53
2022-10-13T03:07:22.179Z,60.97
2022-10-13T03:09:49.035Z,58.20
2022-10-13T03:12:15.956Z,64.93
2022-10-13T03:14:43.787Z,63.55
2022-10-13T03:17:13.487Z,64.38
2022-10-13T03:19:40.853Z,65.10
2022-10-13T03:22:07.854Z,63.75
2022-10-13T03:24:34.906Z,67.45
2022-10-13T03:27:01.927Z,65.53
2022-10-13T03:29:29.072Z,58.65
2022-10-13T03:31:59.010Z,55.95
2022-10-13T03:34:25.865Z,60.25
2022-10-13T03:36:52.822Z,62.47
2022-10-13T03:39:19.691Z,62.08
2022-10-13T03:41:46.591Z,62.38
2022-10-13T03:44:14.016Z,64.32
2022-10-13T03:46:41.132Z,58.08
2022-10-13T03:49:07.983Z,61.55
2022-10-13T03:51:35.062Z,57.30
2022-10-13T03:54:01.974Z,61.92
2022-10-13T03:56:28.923Z,64.55
2022-10-13T03:58:59.282Z,59.63
2022-10-13T04:01:29.577Z,70.45
2022-10-13T04:03:59.737Z,60.55
2022-10-13T04:06:27.274Z,66.82
2022-10-13T04:08:54.827Z,58.70
2022-10-13T04:11:22.311Z,58.15
2022-10-13T04:13:49.309Z,63.78
2022-10-13T04:16:22.100Z,56.78
2022-10-13T04:19:15.872Z,59.85
2022-10-13T04:21:43.653Z,57.58
2022-10-13T04:24:13.283Z,66.03
2022-10-13T04:26:41.038Z,58.88
2022-10-13T04:29:09.928Z,62.65
2022-10-13T04:31:37.185Z,58.90
2022-10-13T04:34:04.336Z,54.75
2022-10-13T04:36:31.425Z,57.92
2022-10-13T04:38:58.278Z,52.75
2022-10-13T04:41:26.186Z,52.33
2022-10-13T04:43:54.289Z,60.42
2022-10-13T04:46:24.559Z,52.70
2022-10-13T04:48:52.091Z,56.85
2022-10-13T04:51:22.210Z,54.45
2022-10-13T04:53:49.341Z,59.83
2022-10-13T04:56:18.018Z,60.97
2022-10-13T04:58:46.070Z,65.22
2022-10-13T05:01:22.202Z,66.25
2022-10-13T05:03:57.646Z,62.85
2022-10-13T05:06:31.568Z,58.47
2022-10-13T05:08:59.261Z,58.67
2022-10-13T05:11:27.432Z,55.72
2022-10-13T05:13:55.195Z,55.65
2022-10-13T05:16:22.929Z,62.67
2022-10-13T05:18:51.415Z,55.60
2022-10-13T05:21:24.595Z,55.45
2022-10-13T05:23:56.496Z,53.03
2022-10-13T05:26:29.123Z,63.97
2022-10-13T05:28:57.269Z,63.28
2022-10-13T05:31:25.762Z,54.28
2022-10-13T05:33:53.291Z,63.75
2022-10-13T05:36:23.306Z,62.10
2022-10-13T05:38:55.665Z,71.45
2022-10-13T05:41:24.341Z,61.42
2022-10-13T05:43:54.523Z,55.38
2022-10-13T05:46:21.674Z,62.58
2022-10-13T05:48:48.573Z,59.85
2022-10-13T05:51:23.067Z,58.55
2022-10-13T05:54:01.260Z,57.85
2022-10-13T05:56:32.947Z,56.60
2022-10-13T05:59:04.887Z,60.88
2022-10-13T06:01:34.514Z,58.53
2022-10-13T06:04:06.461Z,59.25
2022-10-13T06:06:33.843Z,60.60
2022-10-13T06:09:01.404Z,59.33
2022-10-13T06:11:28.426Z,58.10
2022-10-13T06:13:55.532Z,57.17
2022-10-13T06:16:24.314Z,61.33
2022-10-13T06:18:54.367Z,61.03
2022-10-13T06:21:21.353Z,63.28
2022-10-13T06:23:48.473Z,57.55
2022-10-13T06:26:15.423Z,52.95
2022-10-13T06:28:46.252Z,52.72
2022-10-13T06:31:16.036Z,54.42
2022-10-13T06:33:43.215Z,48.40
2022-10-13T06:36:10.450Z,46.88
2022-10-13T06:38:37.340Z,56.05
2022-10-13T06:41:05.590Z,47.85
2022-10-13T06:43:39.659Z,48.75
2022-10-13T06:46:07.993Z,41.35
2022-10-13T06:48:35.506Z,45.90
2022-10-13T06:51:04.135Z,47.40
2022-10-13T06:53:31.524Z,40.38
2022-10-13T06:55:59.652Z,42.40
2022-10-13T06:58:26.662Z,41.50
2022-10-13T07:00:54.185Z,39.90
2022-10-13T07:03:22.138Z,38.45
2022-10-13T07:05:49.074Z,39.58
2022-10-13T07:08:16.003Z,37.70
2022-10-13T07:10:43.064Z,39.28
2022-10-13T07:13:10.046Z,36.20
2022-10-13T07:15:41.040Z,37.90
2022-10-13T07:18:08.283Z,36.10
2022-10-13T07:20:35.582Z,33.97
2022-10-13T07:23:02.817Z,41.80
2022-10-13T07:25:29.753Z,36.42
2022-10-13T07:27:59.226Z,45.65
2022-10-13T07:30:26.462Z,39.80
2022-10-13T07:32:53.616Z,39.08
2022-10-13T07:35:28.129Z,33.75
2022-10-13T07:37:57.367Z,34.33
2022-10-13T07:40:24.417Z,36.38
2022-10-13T07:42:51.343Z,36.10
2022-10-13T07:45:18.421Z,36.13
2022-10-13T07:47:45.272Z,39.92
2022-10-13T07:50:12.194Z,34.65
2022-10-13T07:52:39.159Z,37.58
2022-10-13T07:55:06.691Z,37.72
2022-10-13T07:57:33.915Z,42.72
2022-10-13T08:00:01.356Z,42.58
2022-10-13T08:02:28.452Z,36.53
2022-10-13T08:04:55.281Z,39.78
2022-10-13T08:07:22.974Z,38.40
2022-10-13T08:09:50.142Z,36.25
2022-10-13T08:12:17.582Z,41.08
2022-10-13T08:14:44.859Z,35.63
2022-10-13T08:17:11.858Z,42.50
2022-10-13T08:19:38.721Z,42.72
2022-10-13T08:22:09.617Z,41.95
2022-10-13T08:24:37.103Z,47.55
2022-10-13T08:27:04.068Z,36.95
2022-10-13T08:29:31.152Z,42.30
2022-10-13T08:31:58.167Z,41.65
2022-10-13T08:34:25.609Z,39.80
2022-10-13T08:36:54.890Z,35.08
2022-10-13T08:39:22.958Z,35.30
2022-10-13T08:41:50.535Z,33.45
2022-10-13T08:45:10.523Z,36.90
2022-10-13T08:47:30.283Z,41.70
2022-10-13T08:50:01.327Z,35.78
2022-10-13T08:52:44.315Z,40.38
2022-10-13T08:55:22.010Z,35.53
2022-10-13T08:57:49.008Z,41.03
2022-10-13T09:00:16.235Z,35.95
2022-10-13T09:02:45.257Z,36.15
2022-10-13T09:05:28.149Z,38.35
2022-10-13T09:07:57.637Z,36.00
2022-10-13T09:10:24.665Z,38.35
2022-10-13T09:12:56.219Z,37.50
2022-10-13T09:15:23.280Z,31.23
2022-10-13T09:18:10.839Z,26.80
2022-10-13T09:20:38.311Z,33.85
2022-10-13T09:23:15.943Z,27.70
2022-10-13T09:25:45.478Z,29.42
2022-10-13T09:28:24.922Z,27.25
2022-10-13T09:31:11.686Z,26.48
2022-10-13T09:33:40.893Z,26.05
2022-10-13T09:36:13.013Z,30.27
2022-10-13T09:38:42.366Z,24.50
2022-10-13T09:41:12.360Z,24.63
2022-10-13T09:43:43.290Z,24.85
2022-10-13T09:46:48.614Z,22.25
2022-10-13T09:49:38.961Z,21.52
2022-10-13T09:52:19.667Z,22.17
2022-10-13T09:54:52.908Z,23.23
2022-10-13T09:57:38.191Z,17.80
2022-10-13T10:00:17.559Z,24.45
2022-10-13T10:02:58.539Z,21.25
2022-10-13T10:05:51.132Z,25.30
2022-10-13T10:09:02.061Z,22.48
2022-10-13T10:11:42.648Z,22.83
2022-10-13T10:14:26.624Z,25.00
2022-10-13T10:17:06.787Z,22.38
2022-10-13T10:19:54.792Z,25.23
2022-10-13T10:22:30.587Z,18.55
2022-10-13T10:25:19.401Z,23.50
2022-10-13T10:28:02.659Z,24.38
2022-10-13T10:30:31.932Z,21.98
2022-10-13T10:33:12.317Z,22.08
2022-10-13T10:35:48.081Z,18.58
2022-10-13T10:38:20.938Z,25.17
2022-10-13T10:41:04.495Z,21.67
2022-10-13T10:43:47.303Z,21.38
2022-10-13T10:46:23.320Z,19.75
2022-10-13T10:48:55.145Z,21.67
2022-10-13T10:51:36.349Z,23.25
2022-10-13T10:54:24.898Z,23.08
2022-10-13T10:56:56.550Z,13.88
2022-10-13T10:59:32.472Z,19.05
2022-10-13T11:02:15.148Z,19.73
2022-10-13T11:04:46.534Z,19.95
2022-10-13T11:07:23.397Z,25.73
2022-10-13T11:09:51.864Z,18.67
2022-10-13T11:12:23.646Z,18.25
2022-10-13T11:15:10.216Z,22.02
2022-10-13T11:17:39.161Z,18.60
2022-10-13T11:20:18.334Z,22.52
2022-10-13T11:23:08.286Z,21.42
2022-10-13T11:25:42.681Z,18.75
2022-10-13T11:28:22.071Z,29.45
2022-10-13T11:30:50.872Z,17.70
2022-10-13T11:33:39.119Z,17.25
2022-10-13T11:36:37.166Z,18.77
2022-10-13T11:39:28.697Z,14.70
2022-10-13T11:42:06.078Z,16.85
2022-10-13T11:44:55.783Z,17.70
2022-10-13T11:47:46.927Z,13.40
2022-10-13T11:50:40.116Z,14.52
2022-10-13T11:53:19.213Z,17.35
2022-10-13T11:55:53.121Z,12.63
2022-10-13T11:58:27.487Z,11.45
2022-10-13T12:01:06.983Z,14.80
2022-10-13T12:03:35.465Z,9.02
2022-10-13T12:06:21.933Z,12.30
2022-10-13T12:08:51.788Z,10.13
2022-10-13T12:11:28.326Z,13.43
2022-10-13T12:16:23.155Z,14.57
2022-10-13T12:18:50.768Z,15.73
2022-10-13T12:21:21.583Z,14.70
2022-10-13T12:23:50.834Z,11.52
2022-10-13T12:26:20.901Z,12.25
2022-10-13T12:29:02.841Z,11.38
2022-10-13T12:31:42.311Z,11.88
2022-10-13T12:34:36.578Z,15.05
2022-10-13T12:37:14.983Z,15.00
2022-10-13T12:39:41.997Z,14.00
2022-10-13T12:42:14.216Z,12.88
2022-10-13T12:44:41.490Z,14.40
2022-10-13T12:47:48.287Z,14.23
2022-10-13T12:50:30.095Z,15.25
2022-10-13T12:53:09.056Z,16.77
2022-10-13T12:55:45.602Z,18.92
2022-10-13T13:01:06.293Z,14.98
2022-10-13T13:03:33.634Z,10.75
2022-10-13T13:06:10.014Z,14.00
2022-10-13T13:08:36.901Z,14.65
2022-10-13T13:11:09.837Z,18.42
2022-10-13T13:13:36.731Z,19.08
2022-10-13T13:16:21.910Z,20.25
2022-10-13T13:18:52.461Z,18.15
2022-10-13T13:21:19.953Z,13.75
2022-10-13T13:23:52.847Z,15.27
2022-10-13T13:26:24.365Z,18.83
2022-10-13T13:28:56.088Z,13.68
2022-10-13T13:31:25.141Z,14.80
2022-10-13T13:33:52.902Z,13.25
2022-10-13T13:36:21.812Z,16.70
2022-10-13T13:38:49.921Z,19.00
2022-10-13T13:41:17.230Z,13.38
2022-10-13T13:43:44.361Z,16.58
2022-10-13T13:46:21.351Z,13.45
2022-10-13T13:48:48.940Z,19.08
2022-10-13T13:51:16.044Z,14.88
2022-10-13T13:53:43.141Z,15.73
2022-10-13T13:56:28.113Z,14.48
2022-10-13T13:58:55.067Z,15.40
2022-10-13T14:01:22.910Z,15.10
2022-10-13T14:03:49.836Z,21.42
2022-10-13T14:06:21.365Z,17.63
2022-10-13T14:08:48.548Z,16.60
2022-10-13T14:11:15.796Z,13.27
2022-10-13T14:13:42.888Z,13.60
2022-10-13T14:16:16.827Z,15.15
2022-10-13T14:18:43.756Z,19.58
2022-10-13T14:21:10.769Z,21.50
2022-10-13T14:23:38.526Z,13.30
2022-10-13T14:26:07.578Z,11.70
2022-10-13T14:28:34.458Z,13.45
2022-10-13T14:31:05.024Z,13.88
2022-10-13T14:33:32.036Z,20.88
2022-10-13T14:36:03.164Z,16.90
2022-10-13T14:38:29.977Z,18.73
2022-10-13T14:41:01.387Z,20.70
2022-10-13T14:43:28.558Z,19.13
2022-10-13T14:45:55.817Z,21.58
2022-10-13T14:48:24.887Z,19.63
2022-10-13T14:50:51.818Z,17.50
2022-10-13T14:53:18.656Z,16.90
2022-10-13T14:55:45.627Z,22.42
2022-10-13T14:58:13.107Z,22.20
2022-10-13T15:00:42.586Z,22.75
2022-10-13T15:03:09.487Z,20.25
2022-10-13T15:05:36.777Z,16.23
2022-10-13T15:08:03.630Z,23.75
2022-10-13T15:10:30.826Z,18.55
2022-10-13T15:12:57.661Z,18.23
2022-10-13T15:15:24.669Z,19.15
2022-10-13T15:17:51.480Z,21.88
2022-10-13T15:20:18.366Z,25.98
2022-10-13T15:22:45.126Z,29.80
2022-10-13T15:25:11.992Z,24.90
2022-10-13T15:27:41.994Z,22.02
2022-10-13T15:30:09.769Z,23.77
2022-10-13T15:32:36.768Z,26.95
2022-10-13T15:35:03.855Z,39.15
2022-10-13T15:37:30.633Z,34.47
2022-10-13T15:39:57.813Z,28.45
2022-10-13T15:42:27.993Z,31.02
2022-10-13T15:45:09.493Z,27.45
2022-10-13T15:47:38.097Z,30.67
2022-10-13T15:50:05.138Z,28.25
2022-10-13T15:52:34.960Z,34.10
2022-10-13T15:55:02.404Z,30.25
2022-10-13T15:57:31.067Z,36.70
2022-10-13T15:59:57.853Z,29.80
2022-10-13T16:02:24.643Z,29.10
2022-10-13T16:04:52.046Z,35.55
2022-10-13T16:07:18.807Z,41.75
2022-10-13T16:09:45.697Z,35.00
2022-10-13T16:12:12.508Z,30.15
2022-10-13T16:14:39.314Z,43.67
2022-10-13T16:17:06.116Z,35.00
2022-10-13T16:19:32.867Z,39.72
2022-10-13T16:21:59.647Z,41.45
2022-10-13T16:24:26.437Z,37.50
2022-10-13T16:26:53.219Z,29.90
2022-10-13T16:29:19.986Z,34.47
2022-10-13T16:31:46.796Z,33.47
2022-10-13T16:34:13.708Z,34.10
2022-10-13T16:36:40.526Z,31.00
2022-10-13T16:39:07.348Z,40.78
2022-10-13T16:41:34.147Z,32.40
2022-10-13T16:44:00.958Z,30.60
2022-10-13T16:46:27.967Z,35.65
2022-10-13T16:48:54.886Z,39.80
2022-10-13T16:51:23.872Z,37.45
2022-10-13T16:53:58.624Z,31.77
2022-10-13T16:56:28.886Z,36.88
2022-10-13T16:59:04.207Z,32.30
2022-10-13T17:01:32.516Z,36.83
2022-10-13T17:03:59.857Z,30.48
2022-10-13T17:06:28.827Z,31.15
2022-10-13T17:08:58.180Z,30.77
2022-10-13T17:11:31.152Z,31.50
2022-10-13T17:13:59.312Z,30.80
2022-10-13T17:16:27.142Z,36.92
2022-10-13T17:18:54.953Z,26.25
2022-10-13T17:21:22.303Z,27.10
2022-10-13T17:23:49.775Z,33.83
2022-10-13T17:26:18.168Z,29.02
2022-10-13T17:28:45.672Z,26.83
2022-10-13T17:31:21.747Z,33.45
2022-10-13T17:33:49.513Z,28.80
2022-10-13T17:36:18.423Z,31.67
2022-10-13T17:38:46.761Z,31.98
2022-10-13T17:41:14.235Z,34.55
2022-10-13T17:43:41.803Z,52.58
2022-10-13T17:49:01.811Z,28.23
2022-10-13T17:51:29.007Z,35.38
2022-10-13T17:53:58.520Z,30.60
2022-10-13T17:56:25.797Z,31.80
2022-10-13T17:58:53.157Z,30.35
2022-10-13T18:01:25.600Z,29.42
2022-10-13T18:04:01.821Z,19.52
2022-10-13T18:06:36.788Z,26.02
2022-10-13T18:09:09.564Z,32.72
2022-10-13T18:11:38.133Z,23.70
2022-10-13T18:14:05.593Z,21.63
2022-10-13T18:16:32.908Z,19.90
2022-10-13T18:18:59.690Z,25.40
2022-10-13T18:21:26.968Z,25.40
2022-10-13T18:23:58.926Z,29.80
2022-10-13T18:26:27.289Z,26.30
2022-10-13T18:28:55.071Z,28.40
2022-10-13T18:31:23.434Z,33.85
2022-10-13T18:33:51.088Z,29.77
2022-10-13T18:36:23.207Z,29.27
2022-10-13T18:38:51.520Z,29.40
2022-10-13T18:41:20.494Z,31.20
2022-10-13T18:43:47.266Z,31.70
2022-10-13T18:46:14.104Z,29.17
2022-10-13T18:48:41.186Z,25.95
2022-10-13T18:51:10.548Z,27.77
2022-10-13T18:53:39.278Z,28.15
2022-10-13T18:56:14.508Z,26.85
2022-10-13T18:58:41.547Z,31.45
2022-10-13T19:01:11.033Z,31.25
2022-10-13T19:03:39.628Z,26.77
2022-10-13T19:06:12.238Z,30.02
2022-10-13T19:08:39.653Z,29.48
2022-10-13T19:11:17.400Z,31.80
2022-10-13T19:13:44.682Z,32.20
2022-10-13T19:16:18.244Z,30.23
2022-10-13T19:18:45.950Z,28.23
2022-10-13T19:21:13.450Z,29.40
2022-10-13T19:23:40.671Z,30.13
2022-10-13T19:26:14.647Z,31.40
2022-10-13T19:28:42.333Z,30.45
2022-10-13T19:31:18.619Z,27.80
2022-10-13T19:33:47.329Z,28.88
2022-10-13T19:36:26.671Z,31.92
2022-10-13T19:38:54.722Z,29.10
2022-10-13T19:41:21.671Z,30.63
2022-10-13T19:43:48.931Z,31.58
2022-10-13T19:46:16.451Z,26.75
2022-10-13T19:48:44.840Z,30.77
2022-10-13T19:51:12.411Z,35.83
2022-10-13T19:53:40.037Z,29.10
2022-10-13T19:56:07.848Z,33.92
2022-10-13T19:58:35.551Z,33.92
2022-10-13T20:01:08.423Z,31.80
2022-10-13T20:03:35.450Z,29.85
2022-10-13T20:06:06.578Z,31.63
2022-10-13T20:08:33.874Z,32.28
2022-10-13T20:11:09.495Z,31.63
2022-10-13T20:13:36.783Z,29.02
2022-10-13T20:16:08.748Z,29.05
2022-10-13T20:18:36.078Z,31.05
2022-10-13T20:21:07.979Z,30.08
2022-10-13T20:23:35.675Z,27.95
2022-10-13T20:26:07.716Z,25.67
2022-10-13T20:28:40.476Z,29.75
2022-10-13T20:31:10.874Z,37.05
2022-10-13T20:33:37.657Z,32.10
2022-10-13T20:36:08.631Z,34.67
2022-10-13T20:38:36.406Z,30.65
2022-10-13T20:41:17.768Z,33.13
2022-10-13T20:43:48.552Z,29.08
2022-10-13T20:46:16.946Z,36.67
2022-10-13T20:49:09.871Z,35.75
2022-10-13T20:51:31.375Z,30.08
2022-10-13T20:53:58.335Z,30.17
2022-10-13T20:56:26.488Z,29.38
2022-10-13T20:58:54.266Z,30.42
2022-10-13T21:01:22.748Z,30.58
2022-10-13T21:03:56.215Z,30.95
2022-10-13T21:06:24.325Z,29.25
2022-10-13T21:08:51.555Z,30.30
2022-10-13T21:11:20.621Z,33.03
2022-10-13T21:13:48.669Z,31.77
2022-10-13T21:16:18.550Z,44.25
2022-10-13T21:18:48.372Z,36.13
2022-10-13T21:21:18.604Z,38.85
2022-10-13T21:23:49.189Z,41.85
2022-10-13T21:26:21.138Z,52.10
2022-10-13T21:28:49.190Z,43.55
2022-10-13T21:31:16.836Z,41.08
2022-10-13T21:33:44.648Z,39.30
2022-10-13T21:36:13.196Z,43.83
2022-10-13T21:38:40.754Z,42.97
2022-10-13T21:41:08.806Z,49.15
2022-10-13T21:43:36.119Z,44.35
2022-10-13T21:46:24.318Z,42.20
2022-10-13T21:48:53.892Z,43.10
2022-10-13T21:51:26.421Z,42.30
2022-10-13T21:53:56.107Z,44.88
2022-10-13T21:56:24.295Z,41.25
2022-10-13T21:58:51.508Z,42.72
2022-10-13T22:01:19.596Z,43.10
2022-10-13T22:03:47.291Z,43.40
2022-10-13T22:06:19.137Z,42.10
2022-10-13T22:08:48.587Z,40.78
2022-10-13T22:11:16.112Z,40.30
2022-10-13T22:13:43.007Z,39.42
2022-10-13T22:16:13.625Z,41.17
2022-10-13T22:18:40.723Z,40.67
2022-10-13T22:21:11.523Z,40.22
2022-10-13T22:23:38.335Z,40.65
2022-10-13T22:26:05.331Z,44.15
2022-10-13T22:28:36.836Z,41.75
2022-10-13T22:33:35.703Z,41.00
2022-10-13T22:36:15.247Z,39.58
2022-10-13T22:38:42.831Z,38.33
2022-10-13T22:41:10.163Z,37.20
2022-10-13T22:43:37.574Z,43.30
2022-10-13T22:46:08.623Z,43.55
2022-10-13T22:48:40.429Z,42.28
2022-10-13T22:51:08.203Z,40.58
2022-10-13T22:53:35.057Z,41.85
2022-10-13T22:56:06.341Z,46.03
2022-10-13T22:58:33.181Z,42.15
2022-10-13T23:01:14.871Z,45.22
2022-10-13T23:03:42.836Z,44.88
2022-10-13T23:06:13.965Z,42.63
2022-10-13T23:08:41.461Z,38.38
2022-10-13T23:11:08.735Z,37.17
2022-10-13T23:13:35.934Z,40.15
2022-10-13T23:16:08.803Z,31.45
2022-10-13T23:18:35.607Z,36.50
2022-10-13T23:21:07.563Z,38.78
2022-10-13T23:23:35.011Z,34.47
2022-10-13T23:26:11.654Z,35.40
2022-10-13T23:33:34.101Z,42.92
2022-10-13T23:36:02.411Z,35.03
2022-10-13T23:38:30.624Z,38.80
2022-10-13T23:41:11.784Z,36.25
2022-10-13T23:43:38.673Z,37.58
2022-10-13T23:46:05.831Z,35.60
2022-10-13T23:48:33.164Z,34.58
2022-10-13T23:51:09.605Z,34.20
2022-10-13T23:53:37.681Z,37.72
2022-10-13T23:56:06.794Z,42.88
2022-10-13T23:58:36.694Z,39.08
